Back to Top

Language: 

NOAA Climate Reports...


Report for 2010 Mar
                   MONTHLY CLIMATOLOGICAL SUMMARY for MAR. 2010

NAME: Delerius   CITY:    STATE:  
ELEV:   100 m  LAT:  53 37' 05" N  LONG:   1 27' 13" W

                   TEMPERATURE (C), RAIN  (mm), WIND SPEED (mph)

                                      HEAT  COOL        AVG
    MEAN                              DEG   DEG         WIND                 DOM
DAY TEMP  HIGH   TIME   LOW    TIME   DAYS  DAYS  RAIN  SPEED HIGH   TIME    DIR
------------------------------------------------------------------------------------
 1   ---   ---    7:15   ---    7:15   ---   0.0   0.4   3.1  18.0   13:45   WNW
 2   ---   ---   21:30   ---    0:15   ---   0.0   0.0   2.1  14.0   11:45   WNW
 3   ---   ---    0:15   ---    0:15   ---   0.0   0.0   1.7  11.0   13:00   ESE
 4   ---   ---   18:30   ---    0:15   ---   0.0   0.0   2.4  13.0   10:30   NNE
 5   ---   ---    0:15   ---    5:30   ---   0.0   0.4   7.3  22.0   14:45   WNW
 6   ---   ---   15:00   ---    0:15   ---   0.0   1.8   4.4  18.0    0:30     E
 7   ---   ---   14:30   ---    7:00   ---   0.0   0.0   1.2   9.0   11:00    SE
 8   ---   ---   11:30   ---   11:30   ---   0.0   0.0   3.0  21.0   17:45   NNE
 9   ---   ---    0:15   ---    0:15   ---   0.0   0.0   3.7  18.0   12:15   NNE
10   ---   ---    0:15   ---    0:15   ---   0.0   0.0   3.8  15.0   12:15   ENE
11   ---   ---    0:15   ---    0:15   ---   0.0   0.2   2.3  12.0   11:45    NW
12   ---   ---    0:15   ---    0:15   ---   0.0   1.0   7.2  26.0   18:00     N
13   ---   ---    0:15   ---    0:15   ---   0.0   0.0   6.0  19.0   10:30     W
14   ---   ---    0:15   ---    0:15   ---   0.0   1.8   7.0  25.0   10:00     W
15   ---   ---    0:15   ---    0:15   ---   0.0   0.0  11.9  31.0   10:30     W
16   ---   ---    0:15   ---    0:15   ---   0.0   0.0   2.9  14.0   11:45   WNW
17   ---   ---    0:15   ---    0:15   ---   0.0   0.0   6.7  18.0   10:45   SSW
18   ---   ---    0:15   ---    0:15   ---   0.0   0.0   7.1  30.0   20:45   SSW
19   ---   ---    0:15   ---    0:15   ---   0.0   5.2   7.0  27.0   11:15    SW
20   ---   ---    0:15   ---    0:15   ---   0.0   5.8   5.9  22.0   16:45   SSW
21   ---   ---    0:15   ---    0:15   ---   0.0   0.0   4.9  18.0   11:45     W
22   ---   ---    0:15   ---    0:15   ---   0.0   0.6   9.6  32.0   20:00   SSW
23   ---   ---    0:15   ---    0:15   ---   0.0   0.0   4.4  20.0   16:30    SE
24   ---   ---    0:15   ---    0:15   ---   0.0   0.2   4.0  18.0    1:15    SE
25   ---   ---    0:15   ---    0:15   ---   0.0   2.6   4.8  25.0   22:45    SE
26   ---   ---    0:15   ---    0:15   ---   0.0   0.0  12.8  33.0    4:00   SSW
27   ---   ---    0:15   ---    0:15   ---   0.0   0.0   8.6  29.0   14:00     W
28   ---   ---    0:15   ---    0:15   ---   0.0   0.0  12.3  39.0   14:15     W
29   ---   ---    0:15   ---    0:15   ---   0.0   2.8   4.4  22.0   23:00    SE
30   ---   ---    0:15   ---    0:15   ---   0.0   3.2   5.9  28.0   21:00    SE
31   ---   4.6   21:15   1.2    0:15   ---   0.0   0.4   9.4  28.0   17:30     W
-------------------------------------------------------------------------------------
           4.6    31             1           0.0  26.4   5.7  39.0    28       W

Max >=  32.0:  0
Max <=   0.0:  0
Min <=   0.0:  0
Min <= -18.0:  0
Max Rain: 5.79 ON 20/03/10
Days of Rain: 14 (> .2 mm) 5 (> 2 mm) 0 (> 20 mm)
Heat Base:  18.3  Cool Base:  18.3  Method: Integration

Data updates at regular intervals.